Thunderstorms From: 15-12-2017 06:00 Until: 16-12-2017 06:00 warning for: Thunderstorms Level: Yellow info button

Although rather usual in this region, locally or potentially dangerous phenomena are expected. (such as local winds, summer thunderstorms, rising streams or high waves) Be aware and pay attention to the latest weather updates, especially if you carry out activities exposed to weather or close to a stream or shoreline. 


Meteo18 Weather Cam more information Meteo18 Weather Cam


warning for Thunderstorms more information blitzortung!


Rain radar more information rain snow radar


Visit our other weather sites:

Template documentation
and downloads

And another site



Weather Underground History page Text

Daily Summary for July 16, 2017 Units:  English    Metric   Both
« Previous Day
Next Day »
Daily Weekly Monthly Yearly Custom
  High: Low: Average:
Temperature: 84.7 °F 57 °F 72.3 °F
Dew Point: 60.8 °F 52.9 °F 57.2 °F
Humidity: 89 % 42 % 61 %
Wind Speed: 12 mph 0 mph 1.9 mph
Wind Gust: 16 mph - -
Wind:- - SE
Pressure: 30.3 in 30.2 in -
Precipitation: 0 in    
Historical Graphs
 
 
Tabular Data for July 16, 2017
Time Temperature Dew Point Pressure Wind Wind Speed Wind Gust Humidity Rainfall Rate (Hourly)
00:02 63.1 °F 54 °F 30.3 in Calm     72 % 0 in
00:07 63 °F 53.8 °F 30.3 in Calm     72 % 0 in
00:12 62.8 °F 54 °F 30.3 in Calm   1 mph 73 % 0 in
00:17 62.4 °F 54 °F 30.3 in Calm   1 mph 74 % 0 in
00:22 62.4 °F 54 °F 30.3 in Calm   1 mph 74 % 0 in
00:32 62.8 °F 54 °F 30.3 in Calm   1 mph 73 % 0 in
00:37 62.4 °F 54 °F 30.3 in Calm   1 mph 74 % 0 in
00:42 62.2 °F 54.1 °F 30.3 in Calm   1 mph 75 % 0 in
00:52 61.9 °F 53.8 °F 30.3 in Calm     75 % 0 in
00:57 61.5 °F 54 °F 30.3 in WNW 1 mph 1 mph 76 % 0 in
01:02 61.5 °F 54.3 °F 30.3 in WNW 1 mph 1 mph 77 % 0 in
01:12 61 °F 54.1 °F 30.3 in Calm   2 mph 78 % 0 in
01:17 61 °F 54.1 °F 30.3 in WNW 1 mph 2 mph 78 % 0 in
01:22 60.6 °F 53.8 °F 30.3 in Calm   2 mph 78 % 0 in
01:27 60.6 °F 54.1 °F 30.3 in Calm   1 mph 79 % 0 in
01:32 60.6 °F 54.1 °F 30.3 in Calm   1 mph 79 % 0 in
01:37 60.4 °F 54 °F 30.3 in Calm     79 % 0 in
01:42 60.4 °F 54 °F 30.3 in Calm     79 % 0 in
01:47 60.3 °F 53.8 °F 30.3 in Calm     79 % 0 in
01:52 60.3 °F 53.8 °F 30.3 in Calm   1 mph 79 % 0 in
01:57 60.4 °F 54 °F 30.3 in Calm   1 mph 79 % 0 in
02:02 60.3 °F 53.8 °F 30.3 in North 1 mph 1 mph 79 % 0 in
02:12 60.1 °F 54 °F 30.3 in Calm   1 mph 80 % 0 in
02:17 59.9 °F 53.8 °F 30.3 in NNE 1 mph 1 mph 80 % 0 in
02:22 59.7 °F 53.6 °F 30.3 in Calm   1 mph 80 % 0 in
02:27 59.7 °F 54 °F 30.3 in Calm   1 mph 81 % 0 in
02:32 59.5 °F 53.8 °F 30.3 in Calm   1 mph 81 % 0 in
02:37 59.2 °F 53.6 °F 30.3 in Calm   1 mph 82 % 0 in
02:42 58.8 °F 53.6 °F 30.3 in WNW 1 mph 1 mph 83 % 0 in
02:47 58.6 °F 53.4 °F 30.3 in Calm   1 mph 83 % 0 in
02:52 58.6 °F 53.4 °F 30.3 in Calm   1 mph 83 % 0 in
02:57 58.5 °F 53.6 °F 30.3 in Calm   1 mph 84 % 0 in
03:02 58.6 °F 53.8 °F 30.3 in Calm     84 % 0 in
03:07 59.2 °F 54 °F 30.3 in Calm     83 % 0 in
03:12 59.2 °F 53.6 °F 30.3 in Calm     82 % 0 in
03:17 59 °F 53.6 °F 30.3 in Calm     82 % 0 in
03:22 58.8 °F 53.6 °F 30.3 in Calm     83 % 0 in
03:27 58.6 °F 53.4 °F 30.3 in Calm     83 % 0 in
03:32 58.5 °F 53.6 °F 30.3 in Calm     84 % 0 in
03:37 58.1 °F 53.2 °F 30.3 in Calm     84 % 0 in
03:42 57.7 °F 53.2 °F 30.3 in Calm     85 % 0 in
03:47 57.6 °F 53.1 °F 30.3 in Calm     85 % 0 in
03:52 57.6 °F 53.4 °F 30.3 in Calm     86 % 0 in
03:57 57.6 °F 53.4 °F 30.3 in Calm     86 % 0 in
04:02 57.6 °F 53.4 °F 30.3 in Calm     86 % 0 in
04:12 57.7 °F 53.6 °F 30.3 in Calm     86 % 0 in
04:17 57.7 °F 53.2 °F 30.3 in Calm     85 % 0 in
04:22 57.6 °F 53.1 °F 30.3 in Calm     85 % 0 in
04:32 57.9 °F 53.1 °F 30.3 in Calm     84 % 0 in
04:37 57.9 °F 53.1 °F 30.3 in Calm     84 % 0 in
04:42 57.9 °F 53.1 °F 30.3 in Calm     84 % 0 in
04:47 57.9 °F 53.1 °F 30.3 in Calm     84 % 0 in
04:52 57.9 °F 53.1 °F 30.3 in Calm     84 % 0 in
04:57 57.9 °F 53.1 °F 30.3 in Calm     84 % 0 in
05:02 57.7 °F 52.9 °F 30.3 in Calm     84 % 0 in
05:12 57.6 °F 53.1 °F 30.3 in Calm     85 % 0 in
05:17 57.6 °F 53.1 °F 30.3 in Calm     85 % 0 in
05:22 57.4 °F 52.9 °F 30.3 in Calm     85 % 0 in
05:32 57 °F 52.9 °F 30.3 in Calm     86 % 0 in
05:42 57 °F 52.9 °F 30.3 in Calm     86 % 0 in
05:47 57 °F 52.9 °F 30.3 in Calm     86 % 0 in
05:52 57 °F 52.9 °F 30.3 in Calm     86 % 0 in
05:57 57.4 °F 53.6 °F 30.3 in Calm     87 % 0 in
06:02 57.6 °F 53.8 °F 30.3 in Calm     87 % 0 in
06:12 57.7 °F 54 °F 30.3 in Calm     87 % 0 in
06:17 57.7 °F 53.6 °F 30.3 in Calm     86 % 0 in
06:22 57.9 °F 53.8 °F 30.3 in Calm     86 % 0 in
06:32 58.5 °F 54.7 °F 30.3 in Calm     87 % 0 in
06:42 58.8 °F 55 °F 30.3 in Calm     87 % 0 in
06:47 58.8 °F 54.7 °F 30.3 in Calm     86 % 0 in
06:52 59 °F 54.9 °F 30.3 in Calm     86 % 0 in
06:57 59.2 °F 55.4 °F 30.3 in Calm     87 % 0 in
07:02 59.2 °F 54.7 °F 30.3 in Calm     85 % 0 in
07:12 59.2 °F 55.4 °F 30.3 in Calm     87 % 0 in
07:17 59.2 °F 55.4 °F 30.3 in Calm     87 % 0 in
07:22 59.4 °F 55.8 °F 30.3 in Calm     88 % 0 in
07:27 59.4 °F 56.1 °F 30.3 in Calm     89 % 0 in
07:32 59.5 °F 55.9 °F 30.3 in Calm     88 % 0 in
07:42 60.1 °F 56.1 °F 30.3 in Calm     87 % 0 in
07:52 60.4 °F 55.9 °F 30.3 in Calm     85 % 0 in
07:57 61 °F 56.5 °F 30.3 in Calm     85 % 0 in
08:02 61.5 °F 56.7 °F 30.3 in Calm     84 % 0 in
08:12 63 °F 57.4 °F 30.3 in Calm     82 % 0 in
08:17 63.7 °F 57.4 °F 30.3 in Calm     80 % 0 in
08:22 64 °F 57 °F 30.3 in Calm     78 % 0 in
08:32 64.8 °F 57 °F 30.3 in Calm     76 % 0 in
08:37 65.1 °F 57 °F 30.3 in Calm     75 % 0 in
08:42 65.5 °F 57 °F 30.3 in Calm     74 % 0 in
08:47 66 °F 57.2 °F 30.3 in Calm     73 % 0 in
08:52 66.7 °F 56.3 °F 30.3 in Calm     69 % 0 in
08:57 67.3 °F 56.3 °F 30.3 in Calm     68 % 0 in
09:02 68 °F 56.7 °F 30.3 in Calm     67 % 0 in
09:12 70.2 °F 57 °F 30.3 in Calm     63 % 0 in
09:17 70.9 °F 56.8 °F 30.3 in Calm     61 % 0 in
09:27 72 °F 57.4 °F 30.3 in Calm   2 mph 60 % 0 in
09:32 72.1 °F 56.5 °F 30.3 in SSW 1 mph 2 mph 58 % 0 in
09:37 73 °F 56.8 °F 30.3 in Calm   2 mph 57 % 0 in
09:42 73 °F 55.4 °F 30.3 in SSW 1 mph 2 mph 54 % 0 in
09:47 73.2 °F 55.6 °F 30.3 in Calm   3 mph 54 % 0 in
09:52 73.9 °F 55.8 °F 30.3 in South 1 mph 3 mph 53 % 0 in
09:57 74.1 °F 55.4 °F 30.3 in SSW 1 mph 3 mph 52 % 0 in
10:02 74.1 °F 55.4 °F 30.3 in SSW 2 mph 3 mph 52 % 0 in
10:12 74.1 °F 55.4 °F 30.3 in Calm   3 mph 52 % 0 in
10:17 74.3 °F 55 °F 30.3 in SW 1 mph 3 mph 51 % 0 in
10:22 74.8 °F 55.6 °F 30.3 in SSE 1 mph 3 mph 51 % 0 in
10:27 75 °F 55.6 °F 30.3 in West 1 mph 3 mph 51 % 0 in
10:32 75.4 °F 55.9 °F 30.3 in Calm   3 mph 51 % 0 in
10:37 76.3 °F 55.2 °F 30.3 in NE 2 mph 3 mph 48 % 0 in
10:42 76.1 °F 55 °F 30.3 in East 4 mph 4 mph 48 % 0 in
10:47 75.7 °F 54.7 °F 30.3 in ESE 1 mph 5 mph 48 % 0 in
10:52 76.1 °F 56.1 °F 30.3 in East 2 mph 6 mph 50 % 0 in
11:02 77 °F 55.2 °F 30.3 in East 2 mph 6 mph 47 % 0 in
11:12 76.8 °F 55 °F 30.3 in Calm   4 mph 47 % 0 in
11:17 77.4 °F 55.6 °F 30.3 in NNE 4 mph 6 mph 47 % 0 in
11:22 77.2 °F 55.4 °F 30.3 in WSW 1 mph 6 mph 47 % 0 in
11:27 77.4 °F 56.1 °F 30.3 in ENE 2 mph 8 mph 48 % 0 in
11:32 77.5 °F 55.8 °F 30.3 in ENE 5 mph 8 mph 47 % 0 in
11:42 77.7 °F 55.9 °F 30.3 in ENE 3 mph 9 mph 47 % 0 in
11:52 77.5 °F 56.3 °F 30.3 in East 3 mph 8 mph 48 % 0 in
11:57 78.1 °F 56.3 °F 30.3 in East 1 mph 11 mph 47 % 0 in
12:02 78.3 °F 57 °F 30.3 in ESE 2 mph 11 mph 48 % 0 in
12:12 78.6 °F 56.1 °F 30.3 in NNW 3 mph 8 mph 46 % 0 in
12:17 78.3 °F 55.8 °F 30.3 in SSE 1 mph 9 mph 46 % 0 in
12:22 79.2 °F 57.2 °F 30.3 in ENE 4 mph 9 mph 47 % 0 in
12:32 79 °F 56.5 °F 30.3 in ENE 4 mph 9 mph 46 % 0 in
12:42 79.7 °F 56.5 °F 30.3 in ENE 4 mph 8 mph 45 % 0 in
12:52 80.1 °F 57.4 °F 30.3 in NNW 1 mph 9 mph 46 % 0 in
13:02 80.2 °F 57.6 °F 30.3 in ENE 2 mph 10 mph 46 % 0 in
13:12 80.6 °F 57.9 °F 30.3 in North 7 mph 8 mph 46 % 0 in
13:17 80.8 °F 57.4 °F 30.3 in North 9 mph 13 mph 45 % 0 in
13:22 80.6 °F 57.4 °F 30.3 in NW 5 mph 14 mph 45 % 0 in
13:32 80.2 °F 57.6 °F 30.3 in Calm   13 mph 46 % 0 in
13:42 80.8 °F 57.4 °F 30.3 in West 1 mph 10 mph 45 % 0 in
13:47 80.6 °F 58.5 °F 30.3 in Calm   10 mph 47 % 0 in
13:52 81.3 °F 58.6 °F 30.3 in Calm   10 mph 46 % 0 in
13:57 82 °F 59.2 °F 30.3 in NNE 12 mph 12 mph 46 % 0 in
14:02 81 °F 58.3 °F 30.3 in ESE 3 mph 13 mph 46 % 0 in
14:07 81 °F 58.3 °F 30.3 in ENE 6 mph 13 mph 46 % 0 in
14:12 81 °F 59.4 °F 30.3 in NE 8 mph 13 mph 48 % 0 in
14:17 81.5 °F 58.6 °F 30.3 in NE 8 mph 12 mph 46 % 0 in
14:22 81.1 °F 59 °F 30.3 in NNE 3 mph 16 mph 47 % 0 in
14:27 81.9 °F 59 °F 30.3 in NE 3 mph 16 mph 46 % 0 in
14:32 81.7 °F 59.5 °F 30.3 in NE 3 mph 11 mph 47 % 0 in
14:37 81.7 °F 59.5 °F 30.3 in ENE 8 mph 11 mph 47 % 0 in
14:42 82.2 °F 59.4 °F 30.3 in NE 5 mph 11 mph 46 % 0 in
14:47 82.6 °F 59.7 °F 30.3 in NE 1 mph 11 mph 46 % 0 in
14:52 83.1 °F 60.8 °F 30.3 in North 7 mph 12 mph 47 % 0 in
14:57 82.9 °F 60.1 °F 30.3 in NNE 5 mph 12 mph 46 % 0 in
15:02 82.6 °F 59 °F 30.3 in ENE 4 mph 12 mph 45 % 0 in
15:07 82.6 °F 59 °F 30.3 in ENE 4 mph 10 mph 45 % 0 in
15:12 82.4 °F 59.5 °F 30.3 in ENE 5 mph 10 mph 46 % 0 in
15:17 82.6 °F 59.7 °F 30.3 in NE 11 mph 15 mph 46 % 0 in
15:22 82.6 °F 59 °F 30.3 in East 4 mph 15 mph 45 % 0 in
15:27 82.6 °F 59.7 °F 30.3 in NNE 7 mph 12 mph 46 % 0 in
15:32 82.8 °F 59.9 °F 30.3 in NW 2 mph 12 mph 46 % 0 in
15:37 83.1 °F 59.5 °F 30.3 in Calm   13 mph 45 % 0 in
15:42 83.7 °F 60.1 °F 30.3 in East 4 mph 13 mph 45 % 0 in
15:47 84.4 °F 59.4 °F 30.3 in NW 6 mph 13 mph 43 % 0 in
15:52 84 °F 59.7 °F 30.3 in ENE 6 mph 9 mph 44 % 0 in
15:57 83.7 °F 60.1 °F 30.2 in ENE 8 mph 9 mph 45 % 0 in
16:02 82.9 °F 59.4 °F 30.2 in NE 5 mph 11 mph 45 % 0 in
16:07 82.2 °F 58.8 °F 30.3 in NNW 6 mph 11 mph 45 % 0 in
16:12 82.6 °F 59 °F 30.2 in NE 5 mph 11 mph 45 % 0 in
16:17 83.5 °F 59.9 °F 30.2 in NNE 6 mph 8 mph 45 % 0 in
16:22 83.8 °F 60.3 °F 30.2 in East 8 mph 12 mph 45 % 0 in
16:27 83.5 °F 59.9 °F 30.2 in ENE 4 mph 12 mph 45 % 0 in
16:32 83.7 °F 60.1 °F 30.2 in West 2 mph 12 mph 45 % 0 in
16:37 84 °F 59.7 °F 30.2 in NE 2 mph 11 mph 44 % 0 in
16:42 83.7 °F 60.1 °F 30.2 in NNE 7 mph 11 mph 45 % 0 in
16:47 83.1 °F 59.5 °F 30.2 in NNE 5 mph 11 mph 45 % 0 in
16:52 82.6 °F 59 °F 30.2 in NE 5 mph 11 mph 45 % 0 in
16:57 83.3 °F 59.7 °F 30.2 in NE 5 mph 10 mph 45 % 0 in
17:02 84 °F 60.4 °F 30.2 in North 4 mph 10 mph 45 % 0 in
17:07 84.7 °F 60.4 °F 30.2 in North 4 mph 10 mph 44 % 0 in
17:12 84.2 °F 58.6 °F 30.2 in NE 4 mph 9 mph 42 % 0 in
17:17 84.4 °F 59.4 °F 30.2 in NW 5 mph 9 mph 43 % 0 in
17:22 84.4 °F 60.1 °F 30.2 in NNE 3 mph 9 mph 44 % 0 in
17:27 84.6 °F 59.5 °F 30.2 in NNE 5 mph 13 mph 43 % 0 in
17:32 84 °F 59.2 °F 30.2 in NW 5 mph 13 mph 43 % 0 in
17:37 84.7 °F 59.7 °F 30.2 in NNW 3 mph 14 mph 43 % 0 in
17:42 84 °F 59.2 °F 30.2 in NE 7 mph 14 mph 43 % 0 in
17:47 83.8 °F 59.5 °F 30.2 in NE 4 mph 14 mph 44 % 0 in
17:52 83.7 °F 58.8 °F 30.2 in NNE 7 mph 13 mph 43 % 0 in
17:57 83.8 °F 59.5 °F 30.2 in Calm   12 mph 44 % 0 in
18:02 83.7 °F 59.4 °F 30.2 in North 3 mph 10 mph 44 % 0 in
18:07 83.8 °F 59.5 °F 30.2 in West 1 mph 10 mph 44 % 0 in
18:12 84.2 °F 60.6 °F 30.2 in NE 9 mph 10 mph 45 % 0 in
18:17 84.4 °F 59.4 °F 30.2 in NE 10 mph 10 mph 43 % 0 in
18:22 84 °F 59.7 °F 30.2 in NNW 3 mph 11 mph 44 % 0 in
18:27 84 °F 59.2 °F 30.2 in North 2 mph 14 mph 43 % 0 in
18:32 84 °F 58.5 °F 30.2 in NNE 3 mph 14 mph 42 % 0 in
18:37 84 °F 58.5 °F 30.2 in North 1 mph 12 mph 42 % 0 in
18:42 84.4 °F 59.4 °F 30.2 in NNE 5 mph 10 mph 43 % 0 in
18:47 84.4 °F 59.4 °F 30.2 in Calm   11 mph 43 % 0 in
18:57 83.1 °F 59.5 °F 30.2 in NW 4 mph 12 mph 45 % 0 in
19:02 82.6 °F 59 °F 30.2 in NNW 7 mph 12 mph 45 % 0 in
19:07 82.2 °F 59.4 °F 30.2 in NNW 5 mph 12 mph 46 % 0 in
19:12 82 °F 59.9 °F 30.2 in NNW 7 mph 9 mph 47 % 0 in
19:17 81.9 °F 60.3 °F 30.2 in NW 6 mph 8 mph 48 % 0 in
19:22 81.9 °F 60.3 °F 30.2 in WNW 3 mph 8 mph 48 % 0 in
19:27 82 °F 59.9 °F 30.2 in North 4 mph 8 mph 47 % 0 in
19:32 81.9 °F 59.7 °F 30.2 in NNW 4 mph 7 mph 47 % 0 in
19:42 82.2 °F 59.9 °F 30.2 in North 4 mph 6 mph 47 % 0 in
19:47 82 °F 60.4 °F 30.2 in North 4 mph 8 mph 48 % 0 in
19:52 82.2 °F 60.6 °F 30.2 in NE 2 mph 8 mph 48 % 0 in
19:57 82 °F 60.4 °F 30.2 in NE 2 mph 8 mph 48 % 0 in
20:02 82 °F 60.4 °F 30.2 in NE 4 mph 8 mph 48 % 0 in
20:07 82.4 °F 60.8 °F 30.2 in NE 3 mph 8 mph 48 % 0 in
20:12 82.8 °F 60.4 °F 30.2 in NNE 3 mph 6 mph 47 % 0 in
20:17 82.8 °F 59.9 °F 30.2 in North 5 mph 6 mph 46 % 0 in
20:22 82.4 °F 60.1 °F 30.2 in NE 5 mph 9 mph 47 % 0 in
20:27 82.2 °F 59.9 °F 30.2 in NE 3 mph 9 mph 47 % 0 in
20:32 82.2 °F 59.9 °F 30.2 in NNE 2 mph 9 mph 47 % 0 in
20:37 82 °F 60.4 °F 30.2 in North 4 mph 8 mph 48 % 0 in
20:42 82 °F 60.4 °F 30.2 in NNE 2 mph 8 mph 48 % 0 in
20:47 82 °F 60.4 °F 30.2 in NE 4 mph 8 mph 48 % 0 in
20:57 81.9 °F 60.3 °F 30.2 in NNE 2 mph 5 mph 48 % 0 in
21:02 81.5 °F 60.4 °F 30.2 in Calm   5 mph 49 % 0 in
21:07 81 °F 60.1 °F 30.2 in NE 2 mph 4 mph 49 % 0 in
21:12 80.6 °F 60.3 °F 30.2 in NE 3 mph 4 mph 50 % 0 in
21:17 80.1 °F 60.3 °F 30.2 in NNE 1 mph 4 mph 51 % 0 in
21:22 79.5 °F 60.4 °F 30.2 in NE 2 mph 4 mph 52 % 0 in
21:27 79.2 °F 60.6 °F 30.2 in NE 2 mph 4 mph 53 % 0 in
21:32 78.6 °F 60.6 °F 30.2 in ENE 1 mph 3 mph 54 % 0 in
21:37 78.1 °F 60.6 °F 30.2 in Calm   3 mph 55 % 0 in
21:42 77.7 °F 60.8 °F 30.2 in Calm   3 mph 56 % 0 in
21:47 77.5 °F 60.6 °F 30.2 in Calm   2 mph 56 % 0 in
21:52 77.2 °F 60.8 °F 30.2 in Calm     57 % 0 in
21:57 76.8 °F 60.4 °F 30.2 in Calm     57 % 0 in
22:02 76.6 °F 60.8 °F 30.2 in Calm     58 % 0 in
22:07 76.3 °F 60.4 °F 30.2 in Calm     58 % 0 in
22:12 75.7 °F 60.4 °F 30.2 in Calm     59 % 0 in
22:17 75.4 °F 60.4 °F 30.2 in Calm     60 % 0 in
22:22 74.8 °F 60.4 °F 30.2 in Calm     61 % 0 in
22:27 74.1 °F 60.3 °F 30.2 in NW 1 mph 1 mph 62 % 0 in
22:37 73.6 °F 60.6 °F 30.2 in Calm   1 mph 64 % 0 in
22:42 73.2 °F 60.3 °F 30.2 in NW 1 mph 1 mph 64 % 0 in
22:52 72.7 °F 60.3 °F 30.2 in NNW 1 mph 3 mph 65 % 0 in
22:57 72.7 °F 60.3 °F 30.2 in NNW 2 mph 3 mph 65 % 0 in
23:02 72.7 °F 60.3 °F 30.2 in NNW 2 mph 3 mph 65 % 0 in
23:07 72.3 °F 59.9 °F 30.2 in Calm   2 mph 65 % 0 in
23:12 72 °F 59.9 °F 30.2 in Calm   2 mph 66 % 0 in
23:22 71.4 °F 59.9 °F 30.2 in NNW 1 mph 2 mph 67 % 0 in
23:27 71.4 °F 59.9 °F 30.2 in NNW 1 mph 2 mph 67 % 0 in
23:32 71.4 °F 59.9 °F 30.2 in Calm   2 mph 67 % 0 in
23:37 70.9 °F 59.7 °F 30.2 in Calm   2 mph 68 % 0 in
23:42 70.3 °F 60.1 °F 30.2 in Calm   2 mph 70 % 0 in
23:47 69.6 °F 60.3 °F 30.2 in WNW 1 mph 1 mph 72 % 0 in
23:57 69.3 °F 59.9 °F 30.2 in WNW 2 mph 2 mph 72 % 0 in
Meteo18
Compliments of Weather Underground - 4 mb

Script developed by  Jim McMurry - jmcmurry@mwt.net Adapted for the template by  Wim van der Kuil - Leuven-Template.eu

You find our weather info also at:

European Weather Network

Weather Underground

Equipment we use:

Weather-station
Davis Vue

Weather-program
Meteohub

Weather-server
Raspberry PI 2 B+

Provider
1 and 1

Davis Vue

Meteohub

Raspberry PI 2 B+

1 and 1